Forside
METAR-TAF:

METAR-TAF

Lufthavne :

Leeming, England

Breddekreds: 54-18N, længdekreds: 001-32W, højde: 40 m

Aktuelle vejr

Denne rapport blev lavet for 1 time og 23 minutter siden, kl. 12:50 UTC
Vind 3 kt fra østnordøst
Temperatur 9°C
Fugtighed 66%
Tryk 1034 hPa
Sigt 10 km eller mere

METAR: EGXE 311250Z AUTO 07003KT 9999 FEW035/// BKN041/// 09/03 Q1034 RERA

Tid: 15:13 (14:13 UTC)


TAF: fraværende

Vejrobservationer og prognoser fra mere end 4000 lufthavne (METAR og TAF).

De gule og røde prikker repræsenterer de meteorologiske stationer.

Flyt musen over at se navnet på stationen.

Så klik over at se vejr observationer og prognoser.

At skifte det kort: Klik på de grønne knapper med et sort kors for at zoome ind; på den grønne knap med en bindestreg for at zoome ud; eller på de grønne pile for tilstødende kort.


METAR-TAF: